KTBN Weather Reports


Display with metric or nautical units.
time (UTC)temp
F
wind
direction
speed
MPH
gust
MPH
rain 1hr
in
rain 24hr
in
rain mn
in
humidity
%
barometer
mb
20200709043025 75 160 5.0 0.0 0.00 0.00 0.00 82 1012.0
20200709040026 75 160 5.0 0.0 0.00 0.00 0.00 82 1012.0
20200709033021 77 130 6.0 0.0 0.00 0.00 0.00 77 1013.0
20200709030019 77 130 6.0 0.0 0.00 0.00 0.00 77 1013.0
20200709023016 78 170 5.0 0.0 0.00 0.00 0.00 73 1012.0
20200709020024 78 170 5.0 0.0 0.00 0.00 0.00 73 1012.0
20200709013016 82 120 7.0 0.0 0.00 0.00 0.00 66 1012.0
20200709010020 82 120 7.0 0.0 0.00 0.00 0.00 66 1012.0
20200709003022 84 130 10.0 0.0 0.00 0.00 0.00 64 1012.0
20200709000025 84 130 10.0 0.0 0.00 0.00 0.00 64 1012.0
20200708233021 85 210 9.0 0.0 0.00 0.00 0.00 58 1012.0
20200708230020 85 210 9.0 0.0 0.00 0.00 0.00 58 1012.0
20200708223021 86 220 9.0 0.0 0.00 0.00 0.00 60 1012.0
20200708220024 86 220 9.0 0.0 0.00 0.00 0.00 60 1012.0
20200708213020 88 110 6.0 0.0 0.00 0.00 0.00 52 1012.0
20200708210019 88 110 6.0 0.0 0.00 0.00 0.00 52 1012.0
20200708203028 90 110 8.0 0.0 0.00 0.00 0.00 53 1013.0
20200708200027 90 110 8.0 0.0 0.00 0.00 0.00 53 1013.0
20200708193025 90 220 7.0 0.0 0.00 0.00 0.00 52 1013.0
20200708190034 90 220 7.0 0.0 0.00 0.00 0.00 52 1013.0
20200708183026 89 140 9.0 0.0 0.00 0.00 0.00 51 1014.0
20200708180020 89 140 9.0 0.0 0.00 0.00 0.00 51 1014.0
20200708173018 87 120 6.0 0.0 0.00 0.00 0.00 57 1015.0
20200708170026 87 120 6.0 0.0 0.00 0.00 0.00 57 1015.0
20200708163031 86 0 0.0 0.0 0.00 0.00 0.00 60 1015.0
20200708160030 86 0 0.0 0.0 0.00 0.00 0.00 60 1015.0
20200708153018 84 0 0.0 0.0 0.00 0.00 0.00 62 1015.0
20200708150023 84 0 0.0 0.0 0.00 0.00 0.00 62 1015.0
20200708143020 81 240 3.0 0.0 0.00 0.00 0.00 72 1015.0
20200708140020 81 240 3.0 0.0 0.00 0.00 0.00 72 1015.0
20200708133018 77 0 0.0 0.0 0.00 0.00 0.00 81 1014.0
20200708130030 77 0 0.0 0.0 0.00 0.00 0.00 81 1014.0
20200708123019 72 0 0.0 0.0 0.00 0.00 0.00 91 1014.0
20200708120032 72 0 0.0 0.0 0.00 0.00 0.00 91 1014.0
20200708113022 70 150 3.0 0.0 0.00 0.00 0.00 97 1014.0
20200708110021 70 150 3.0 0.0 0.00 0.00 0.00 97 1014.0
20200708103023 70 150 5.0 0.0 0.00 0.00 0.00 97 1014.0
20200708100018 70 150 5.0 0.0 0.00 0.00 0.00 97 1014.0
20200708093030 71 140 3.0 0.0 0.00 0.00 0.00 95 1014.0
20200708090018 71 140 3.0 0.0 0.00 0.00 0.00 95 1014.0
20200708083023 71 180 3.0 0.0 0.00 0.00 0.00 95 1014.0
20200708080019 71 180 3.0 0.0 0.00 0.00 0.00 95 1014.0
20200708073017 72 140 8.0 0.0 0.00 0.00 0.00 97 1015.0
20200708070017 72 140 8.0 0.0 0.00 0.00 0.00 97 1015.0
20200708063030 73 150 5.0 0.0 0.00 0.00 0.00 94 1015.0
20200708060017 73 150 5.0 0.0 0.00 0.00 0.00 94 1015.0
20200708053030 74 160 3.0 0.0 0.00 0.00 0.00 90 1015.0
20200708050020 74 160 3.0 0.0 0.00 0.00 0.00 90 1015.0